createdAt,value
2019-03-15T00:00:56.136Z,18.60
2019-03-15T00:03:23.793Z,18.73
2019-03-15T00:05:50.944Z,20.90
2019-03-15T00:08:18.403Z,18.67
2019-03-15T00:10:47.664Z,18.08
2019-03-15T00:13:17.663Z,18.60
2019-03-15T00:15:44.770Z,18.55
2019-03-15T00:18:11.820Z,19.27
2019-03-15T00:20:38.872Z,19.70
2019-03-15T00:23:05.926Z,19.85
2019-03-15T00:25:32.964Z,19.45
2019-03-15T00:28:00.019Z,19.95
2019-03-15T00:30:27.062Z,19.40
2019-03-15T00:32:54.627Z,19.67
2019-03-15T00:35:21.657Z,20.88
2019-03-15T00:37:48.719Z,20.88
2019-03-15T00:40:16.734Z,19.87
2019-03-15T00:42:42.977Z,19.95
2019-03-15T00:45:10.076Z,19.10
2019-03-15T00:47:37.119Z,20.50
2019-03-15T00:50:04.168Z,19.98
2019-03-15T00:52:31.219Z,20.60
2019-03-15T00:54:58.267Z,20.27
2019-03-15T00:57:25.313Z,20.52
2019-03-15T00:59:52.367Z,20.60
2019-03-15T01:02:19.361Z,21.20
2019-03-15T01:04:46.458Z,21.83
2019-03-15T01:07:13.512Z,19.98
2019-03-15T01:09:40.555Z,20.98
2019-03-15T01:12:07.609Z,21.58
2019-03-15T01:14:36.393Z,20.58
2019-03-15T01:17:03.443Z,19.58
2019-03-15T01:19:30.495Z,20.65
2019-03-15T01:22:05.653Z,20.73
2019-03-15T01:24:32.677Z,19.62
2019-03-15T01:27:02.295Z,19.87
2019-03-15T01:29:29.334Z,19.45
2019-03-15T01:31:57.029Z,18.67
2019-03-15T01:34:24.045Z,18.30
2019-03-15T01:36:53.224Z,18.35
2019-03-15T01:39:21.884Z,18.83
2019-03-15T01:41:48.878Z,18.55
2019-03-15T01:44:15.933Z,18.40
2019-03-15T01:46:44.715Z,16.83
2019-03-15T01:49:11.765Z,17.17
2019-03-15T01:51:38.817Z,16.52
2019-03-15T01:54:06.681Z,16.15
2019-03-15T01:56:33.736Z,16.60
2019-03-15T01:59:00.777Z,15.43
2019-03-15T02:01:27.824Z,15.85
2019-03-15T02:03:55.015Z,16.73
2019-03-15T02:06:22.035Z,15.60
2019-03-15T02:08:49.079Z,15.70
2019-03-15T02:11:16.127Z,15.43
2019-03-15T02:13:43.143Z,15.00
2019-03-15T02:16:10.222Z,15.18
2019-03-15T02:18:37.575Z,16.23
2019-03-15T02:21:04.725Z,15.25
2019-03-15T02:23:31.782Z,15.60
2019-03-15T02:25:58.822Z,15.07
2019-03-15T02:28:25.876Z,15.57
2019-03-15T02:30:52.928Z,14.48
2019-03-15T02:33:19.969Z,15.27
2019-03-15T02:35:47.189Z,15.47
2019-03-15T02:38:14.169Z,15.27
2019-03-15T02:40:41.224Z,14.45
2019-03-15T02:43:08.373Z,14.32
2019-03-15T02:45:36.754Z,14.57
2019-03-15T02:48:03.732Z,14.82
2019-03-15T02:50:30.748Z,15.43
2019-03-15T02:52:57.791Z,14.05
2019-03-15T02:55:24.896Z,13.15
2019-03-15T02:57:51.893Z,16.08
2019-03-15T03:00:19.351Z,15.88
2019-03-15T03:02:46.395Z,13.80
2019-03-15T03:05:13.444Z,16.80
2019-03-15T03:07:41.004Z,17.20
2019-03-15T03:10:08.057Z,16.70
2019-03-15T03:12:35.106Z,14.37
2019-03-15T03:15:02.914Z,15.30
2019-03-15T03:17:29.922Z,14.10
2019-03-15T03:19:56.964Z,16.10
2019-03-15T03:22:24.019Z,15.32
2019-03-15T03:24:51.167Z,16.12
2019-03-15T03:27:18.114Z,16.43
2019-03-15T03:29:49.716Z,17.23
2019-03-15T03:32:17.849Z,17.25
2019-03-15T03:35:04.516Z,14.98
2019-03-15T03:37:32.006Z,16.43
2019-03-15T03:39:59.143Z,18.12
2019-03-15T03:42:26.212Z,15.73
2019-03-15T03:44:53.259Z,17.20
2019-03-15T03:47:28.663Z,17.65
2019-03-15T03:49:55.749Z,17.93
2019-03-15T03:52:22.796Z,16.12
2019-03-15T03:54:49.849Z,17.75
2019-03-15T03:57:16.895Z,17.27
2019-03-15T03:59:43.941Z,17.62
2019-03-15T04:02:10.995Z,16.67
2019-03-15T04:04:38.146Z,16.73
2019-03-15T04:07:05.189Z,16.58
2019-03-15T04:09:32.239Z,16.27
2019-03-15T04:11:59.291Z,17.25
2019-03-15T04:14:26.334Z,17.87
2019-03-15T04:16:53.371Z,17.05
2019-03-15T04:19:20.438Z,17.52
2019-03-15T04:21:48.316Z,17.77
2019-03-15T04:24:15.354Z,18.07
2019-03-15T04:26:42.355Z,19.65
2019-03-15T04:29:09.547Z,18.95
2019-03-15T04:31:36.596Z,17.75
2019-03-15T04:34:03.651Z,18.53
2019-03-15T04:36:30.699Z,19.40
2019-03-15T04:38:57.744Z,20.52
2019-03-15T04:41:24.795Z,17.92
2019-03-15T04:43:51.841Z,19.87
2019-03-15T04:46:18.888Z,19.40
2019-03-15T04:48:47.881Z,19.33
2019-03-15T04:51:14.936Z,18.25
2019-03-15T04:53:41.978Z,17.48
2019-03-15T04:56:10.099Z,18.80
2019-03-15T04:58:37.100Z,18.80
2019-03-15T05:01:04.272Z,18.77
2019-03-15T05:03:31.735Z,18.95
2019-03-15T05:06:03.673Z,19.05
2019-03-15T05:08:25.915Z,18.80
2019-03-15T05:10:53.679Z,17.57
2019-03-15T05:13:20.739Z,18.13
2019-03-15T05:15:49.614Z,17.92
2019-03-15T05:18:16.670Z,16.77
2019-03-15T05:20:43.822Z,18.95
2019-03-15T05:23:12.605Z,19.30
2019-03-15T05:25:58.991Z,18.65
2019-03-15T05:28:27.793Z,21.00
2019-03-15T05:30:54.850Z,21.73
2019-03-15T05:33:21.903Z,21.48
2019-03-15T05:35:48.940Z,21.98
2019-03-15T05:38:16.150Z,22.08
2019-03-15T05:40:43.199Z,23.08
2019-03-15T05:43:10.206Z,23.00
2019-03-15T05:45:37.252Z,23.77
2019-03-15T05:48:04.230Z,24.12
2019-03-15T05:50:31.230Z,23.38
2019-03-15T05:52:58.287Z,22.83
2019-03-15T05:55:25.327Z,21.83
2019-03-15T05:57:52.376Z,22.50
2019-03-15T06:00:27.699Z,21.98
2019-03-15T06:02:54.824Z,23.40
2019-03-15T06:05:21.919Z,25.60
2019-03-15T06:07:48.966Z,25.98
2019-03-15T06:10:16.020Z,25.62
2019-03-15T06:12:43.064Z,23.58
2019-03-15T06:15:10.173Z,25.20
2019-03-15T06:17:37.269Z,23.75
2019-03-15T06:20:06.424Z,24.67
2019-03-15T06:22:31.596Z,24.60
2019-03-15T06:24:58.644Z,24.10
2019-03-15T06:27:30.957Z,27.05
2019-03-15T06:29:56.019Z,27.52
2019-03-15T06:32:23.169Z,25.90
2019-03-15T06:34:51.031Z,25.60
2019-03-15T06:37:18.316Z,26.45
2019-03-15T06:39:45.331Z,30.80
2019-03-15T06:42:12.393Z,33.35
2019-03-15T06:44:39.430Z,31.40
2019-03-15T06:47:06.488Z,21.90
2019-03-15T06:49:33.842Z,26.97
2019-03-15T06:52:00.989Z,30.83
2019-03-15T06:54:28.036Z,31.85
2019-03-15T06:56:55.388Z,31.00
2019-03-15T06:59:22.446Z,28.15
2019-03-15T07:01:49.445Z,32.45
2019-03-15T07:04:16.592Z,33.63
2019-03-15T07:06:45.939Z,28.15
2019-03-15T07:09:13.088Z,32.88
2019-03-15T07:11:40.141Z,33.60
2019-03-15T07:14:09.442Z,30.92
2019-03-15T07:16:38.190Z,20.10
2019-03-15T07:19:03.604Z,25.23
2019-03-15T07:21:30.584Z,25.65
2019-03-15T07:23:58.060Z,32.25
2019-03-15T07:26:24.789Z,33.15
2019-03-15T07:28:51.832Z,24.48
2019-03-15T07:31:21.337Z,21.87
2019-03-15T07:33:49.609Z,25.67
2019-03-15T07:36:15.551Z,31.90
2019-03-15T07:38:42.537Z,21.45
2019-03-15T07:41:11.596Z,15.32
2019-03-15T07:43:58.332Z,35.37
2019-03-15T07:46:25.344Z,31.85
2019-03-15T07:48:52.386Z,36.22
2019-03-15T07:51:19.544Z,24.00
2019-03-15T07:53:46.588Z,36.65
2019-03-15T07:56:13.639Z,33.22
2019-03-15T07:58:40.687Z,35.50
2019-03-15T08:01:07.732Z,34.25
2019-03-15T08:03:35.007Z,34.90
2019-03-15T08:06:01.944Z,29.92
2019-03-15T08:08:29.016Z,34.03
2019-03-15T08:10:56.195Z,29.45
2019-03-15T08:13:23.289Z,31.85
2019-03-15T08:15:52.787Z,31.80
2019-03-15T08:18:19.847Z,32.15
2019-03-15T08:20:46.884Z,31.12
2019-03-15T08:23:14.957Z,33.45
2019-03-15T08:25:41.984Z,33.47
2019-03-15T08:28:10.701Z,31.33
2019-03-15T08:30:37.745Z,32.45
2019-03-15T08:33:09.970Z,32.40
2019-03-15T08:35:36.330Z,30.67
2019-03-15T08:38:05.371Z,33.55
2019-03-15T08:40:30.542Z,34.10
2019-03-15T08:42:59.232Z,25.58
2019-03-15T08:45:26.392Z,32.28
2019-03-15T08:48:07.031Z,29.15
2019-03-15T08:50:34.099Z,29.70
2019-03-15T08:53:02.015Z,26.12
2019-03-15T08:55:29.016Z,37.08
2019-03-15T08:57:56.067Z,36.30
2019-03-15T09:00:23.833Z,36.50
2019-03-15T09:02:50.983Z,31.93
2019-03-15T09:05:18.028Z,30.00
2019-03-15T09:07:45.075Z,28.60
2019-03-15T09:10:22.625Z,22.15
2019-03-15T09:12:39.284Z,23.42
2019-03-15T09:15:06.327Z,15.40
2019-03-15T09:17:34.250Z,18.13
2019-03-15T09:20:01.364Z,21.13
2019-03-15T09:22:28.393Z,19.37
2019-03-15T09:25:21.088Z,17.43
2019-03-15T09:27:47.688Z,12.43
2019-03-15T09:30:23.356Z,17.93
2019-03-15T09:32:41.878Z,16.77
2019-03-15T09:35:08.926Z,14.73
2019-03-15T09:37:35.979Z,15.50
2019-03-15T09:40:03.046Z,14.87
2019-03-15T09:42:30.077Z,19.50
2019-03-15T09:44:57.142Z,11.37
2019-03-15T09:47:24.169Z,12.67
2019-03-15T09:49:51.335Z,16.17
2019-03-15T09:52:18.369Z,5.23
2019-03-15T09:54:45.425Z,2.00
2019-03-15T09:57:12.466Z,17.17
2019-03-15T09:59:39.514Z,19.00
2019-03-15T10:02:07.855Z,15.87
2019-03-15T10:04:36.055Z,19.87
2019-03-15T10:07:01.485Z,14.13
2019-03-15T10:09:28.544Z,9.20
2019-03-15T10:11:56.631Z,14.77
2019-03-15T10:14:23.245Z,15.27
2019-03-15T10:16:50.288Z,18.83
2019-03-15T10:19:17.336Z,15.00
2019-03-15T10:21:46.740Z,13.40
2019-03-15T10:24:15.718Z,13.17
2019-03-15T10:26:40.928Z,15.97
2019-03-15T10:29:15.510Z,16.50
2019-03-15T10:31:35.153Z,22.63
2019-03-15T10:34:02.192Z,19.80
2019-03-15T10:36:29.236Z,20.42
2019-03-15T10:38:56.289Z,26.90
2019-03-15T10:41:23.333Z,26.52
2019-03-15T10:43:50.381Z,24.25
2019-03-15T10:46:17.436Z,19.50
2019-03-15T10:48:44.481Z,18.40
2019-03-15T10:51:11.527Z,21.93
2019-03-15T10:53:38.582Z,28.38
2019-03-15T10:56:05.628Z,28.92
2019-03-15T10:58:32.781Z,28.40
2019-03-15T11:00:59.848Z,28.12
2019-03-15T11:03:26.882Z,28.50
2019-03-15T11:05:53.923Z,26.83
2019-03-15T11:08:24.355Z,29.30
2019-03-15T11:10:50.789Z,26.98
2019-03-15T11:13:18.753Z,28.62
2019-03-15T11:15:47.528Z,28.38
2019-03-15T11:18:17.051Z,21.83
2019-03-15T11:20:44.109Z,27.35
2019-03-15T11:23:11.351Z,26.87
2019-03-15T11:25:38.401Z,27.23
2019-03-15T11:28:06.064Z,27.33
2019-03-15T11:30:33.219Z,28.17
2019-03-15T11:33:01.247Z,23.52
2019-03-15T11:35:28.311Z,23.40
2019-03-15T11:37:55.388Z,21.73
2019-03-15T11:40:22.441Z,19.73
2019-03-15T11:42:49.588Z,21.40
2019-03-15T11:45:17.223Z,22.23
2019-03-15T11:48:02.028Z,22.57
2019-03-15T11:50:12.163Z,23.53
2019-03-15T11:52:39.212Z,22.50
2019-03-15T11:55:07.680Z,22.83
2019-03-15T11:57:34.776Z,26.33
2019-03-15T12:00:02.052Z,26.92
2019-03-15T12:02:29.080Z,26.70
2019-03-15T12:04:56.668Z,23.80
2019-03-15T12:07:23.607Z,20.55
2019-03-15T12:09:50.736Z,22.50
2019-03-15T12:12:17.903Z,22.67
2019-03-15T12:14:44.941Z,23.60
2019-03-15T12:17:11.932Z,24.85
2019-03-15T12:19:39.601Z,25.37
2019-03-15T12:22:06.835Z,25.37
2019-03-15T12:24:33.854Z,25.47
2019-03-15T12:27:00.894Z,22.62
2019-03-15T12:29:27.942Z,25.62
2019-03-15T12:31:55.001Z,24.65
2019-03-15T12:34:21.992Z,23.12
2019-03-15T12:36:49.096Z,23.57
2019-03-15T12:39:16.193Z,23.40
2019-03-15T12:41:43.185Z,23.17
2019-03-15T12:44:10.663Z,22.90
2019-03-15T12:46:38.154Z,21.15
2019-03-15T12:49:05.257Z,18.37
2019-03-15T12:51:32.590Z,17.08
2019-03-15T12:53:59.555Z,16.37
2019-03-15T12:56:26.603Z,15.32
2019-03-15T12:58:53.659Z,16.30
2019-03-15T13:01:22.039Z,16.93
2019-03-15T13:03:49.080Z,15.37
2019-03-15T13:06:16.244Z,14.73
2019-03-15T13:08:43.383Z,13.68
2019-03-15T13:11:12.043Z,13.52
2019-03-15T13:13:39.444Z,12.30
2019-03-15T13:16:07.295Z,11.25
2019-03-15T13:18:34.956Z,10.80
2019-03-15T13:21:02.330Z,11.52
2019-03-15T13:23:29.314Z,10.88
2019-03-15T13:25:57.024Z,11.20
2019-03-15T13:28:25.289Z,9.95
2019-03-15T13:31:17.018Z,10.90
2019-03-15T13:34:08.425Z,10.68
2019-03-15T13:36:57.799Z,11.18
2019-03-15T13:39:24.874Z,10.65
2019-03-15T13:41:53.311Z,10.27
2019-03-15T13:44:20.502Z,10.90
2019-03-15T13:46:47.557Z,10.68
2019-03-15T13:49:15.015Z,11.45
2019-03-15T13:51:42.170Z,10.85
2019-03-15T13:54:09.160Z,10.85
2019-03-15T13:56:36.625Z,10.82
2019-03-15T13:59:03.667Z,11.35
2019-03-15T14:01:30.772Z,10.65
2019-03-15T14:03:58.017Z,10.60
2019-03-15T14:06:25.074Z,10.63
2019-03-15T14:08:52.164Z,11.12
2019-03-15T14:11:19.881Z,10.20
2019-03-15T14:13:47.646Z,10.13
2019-03-15T14:16:14.921Z,10.63
2019-03-15T14:18:41.915Z,9.85
2019-03-15T14:21:08.997Z,10.30
2019-03-15T14:23:35.995Z,9.65
2019-03-15T14:26:03.103Z,9.88
2019-03-15T14:28:30.148Z,10.70
2019-03-15T14:30:57.198Z,10.80
2019-03-15T14:33:24.241Z,11.52
2019-03-15T14:35:51.310Z,11.05
2019-03-15T14:38:18.519Z,10.55
2019-03-15T14:40:46.308Z,13.75
2019-03-15T14:43:13.462Z,14.48
2019-03-15T14:45:40.648Z,13.90
2019-03-15T14:48:07.663Z,14.38
2019-03-15T14:50:34.717Z,14.35
2019-03-15T14:53:01.757Z,13.60
2019-03-15T14:55:28.812Z,12.85
2019-03-15T14:57:55.861Z,14.10
2019-03-15T15:00:24.339Z,13.67
2019-03-15T15:02:51.391Z,14.43
2019-03-15T15:05:18.389Z,13.57
2019-03-15T15:07:45.480Z,14.13
2019-03-15T15:10:13.460Z,17.87
2019-03-15T15:12:40.618Z,13.93
2019-03-15T15:15:32.376Z,13.10
2019-03-15T15:18:17.124Z,13.25
2019-03-15T15:20:44.245Z,12.98
2019-03-15T15:23:11.396Z,12.43
2019-03-15T15:25:38.449Z,13.48
2019-03-15T15:28:05.493Z,13.50
2019-03-15T15:30:32.644Z,13.50
2019-03-15T15:33:00.102Z,13.73
2019-03-15T15:35:27.154Z,12.82
2019-03-15T15:37:54.205Z,13.48
2019-03-15T15:40:21.760Z,14.02
2019-03-15T15:42:48.911Z,15.25
2019-03-15T15:45:15.967Z,15.27
2019-03-15T15:47:44.959Z,15.30
2019-03-15T15:50:12.019Z,15.60
2019-03-15T15:52:39.053Z,15.85
2019-03-15T15:55:06.521Z,10.15
2019-03-15T15:57:33.563Z,11.10
2019-03-15T16:00:02.321Z,9.70
2019-03-15T16:02:29.353Z,10.75
2019-03-15T16:04:56.344Z,10.77
2019-03-15T16:07:23.435Z,9.90
2019-03-15T16:09:50.461Z,10.32
2019-03-15T16:12:17.499Z,9.50
2019-03-15T16:14:44.639Z,10.07
2019-03-15T16:17:11.692Z,9.90
2019-03-15T16:19:38.737Z,11.75
2019-03-15T16:22:05.889Z,11.02
2019-03-15T16:24:33.877Z,13.20
2019-03-15T16:27:01.009Z,13.43
2019-03-15T16:29:28.063Z,12.48
2019-03-15T16:31:55.105Z,13.55
2019-03-15T16:34:22.278Z,11.55
2019-03-15T16:36:49.305Z,11.60
2019-03-15T16:39:16.457Z,10.65
2019-03-15T16:41:43.476Z,11.40
2019-03-15T16:44:10.554Z,11.60
2019-03-15T16:46:39.139Z,12.35
2019-03-15T16:49:06.191Z,12.80
2019-03-15T16:51:33.243Z,12.52
2019-03-15T16:54:10.716Z,11.82
2019-03-15T16:56:37.785Z,11.43
2019-03-15T16:59:04.825Z,10.98
2019-03-15T17:01:34.335Z,11.18
2019-03-15T17:04:01.389Z,11.38
2019-03-15T17:06:28.537Z,11.55
2019-03-15T17:08:55.581Z,10.95
2019-03-15T17:11:23.251Z,11.07
2019-03-15T17:13:50.296Z,11.18
2019-03-15T17:16:18.666Z,11.38
2019-03-15T17:18:46.078Z,11.02
2019-03-15T17:21:13.181Z,10.45
2019-03-15T17:23:40.438Z,10.00
2019-03-15T17:26:07.485Z,10.45
2019-03-15T17:28:34.531Z,11.03
2019-03-15T17:31:09.824Z,11.27
2019-03-15T17:33:39.772Z,11.47
2019-03-15T17:36:08.270Z,11.33
2019-03-15T17:38:37.181Z,11.43
2019-03-15T17:41:04.220Z,10.53
2019-03-15T17:43:39.799Z,11.80
2019-03-15T17:46:09.147Z,12.43
2019-03-15T17:48:36.315Z,11.50
2019-03-15T17:51:03.467Z,11.27
2019-03-15T17:53:30.621Z,11.70
2019-03-15T17:55:57.830Z,11.83
2019-03-15T17:58:33.384Z,12.17
2019-03-15T18:01:00.676Z,12.00
2019-03-15T18:03:27.744Z,14.57
2019-03-15T18:05:54.768Z,14.50
2019-03-15T18:08:29.680Z,14.90
2019-03-15T18:10:56.750Z,17.20
2019-03-15T18:16:07.493Z,15.07
2019-03-15T18:18:34.485Z,13.63
2019-03-15T18:21:04.381Z,13.63
2019-03-15T18:23:31.466Z,13.50
2019-03-15T18:25:58.600Z,13.67
2019-03-15T18:28:25.654Z,13.57
2019-03-15T18:31:16.982Z,13.97
2019-03-15T18:36:52.205Z,14.10
2019-03-15T18:39:20.308Z,13.50
2019-03-15T18:41:50.425Z,13.07
2019-03-15T18:44:14.559Z,12.60
2019-03-15T18:46:41.557Z,13.37
2019-03-15T18:49:18.483Z,11.60
2019-03-15T18:51:44.558Z,12.73
2019-03-15T18:54:17.443Z,12.87
2019-03-15T18:56:38.754Z,13.20
2019-03-15T18:59:08.695Z,14.67
2019-03-15T19:01:35.822Z,15.13
2019-03-15T19:04:02.779Z,14.53
2019-03-15T19:06:29.919Z,15.77
2019-03-15T19:08:56.967Z,15.43
2019-03-15T19:11:24.080Z,12.33
2019-03-15T19:13:51.174Z,13.53
2019-03-15T19:16:20.248Z,18.73
2019-03-15T19:18:45.782Z,27.73
2019-03-15T19:21:14.669Z,12.73
2019-03-15T19:23:41.719Z,10.77
2019-03-15T19:26:08.868Z,9.67
2019-03-15T19:28:35.922Z,23.33
2019-03-15T19:31:03.075Z,11.97
2019-03-15T19:33:30.069Z,10.43
2019-03-15T19:35:57.067Z,10.40
2019-03-15T19:38:24.033Z,9.43
2019-03-15T19:40:51.062Z,19.10
2019-03-15T19:43:18.109Z,25.57
2019-03-15T19:45:45.155Z,21.43
2019-03-15T19:48:12.209Z,12.23
2019-03-15T19:50:39.250Z,16.30
2019-03-15T19:53:06.406Z,13.60
2019-03-15T19:55:33.453Z,16.83
2019-03-15T19:58:00.505Z,14.00
2019-03-15T20:00:27.656Z,15.13
2019-03-15T20:02:54.700Z,13.60
2019-03-15T20:05:21.787Z,14.03
2019-03-15T20:07:49.197Z,13.67
2019-03-15T20:10:17.003Z,13.43
2019-03-15T20:12:43.251Z,15.13
2019-03-15T20:15:11.273Z,19.03
2019-03-15T20:17:38.435Z,18.10
2019-03-15T20:20:05.575Z,17.23
2019-03-15T20:22:32.630Z,18.43
2019-03-15T20:25:00.703Z,20.00
2019-03-15T20:27:29.503Z,20.23
2019-03-15T20:29:56.847Z,17.73
2019-03-15T20:32:25.128Z,19.17
2019-03-15T20:34:53.779Z,18.10
2019-03-15T20:37:23.185Z,17.90
2019-03-15T20:39:50.267Z,17.00
2019-03-15T20:42:20.468Z,19.23
2019-03-15T20:44:50.463Z,18.27
2019-03-15T20:47:17.532Z,17.03
2019-03-15T20:49:46.172Z,17.13
2019-03-15T20:52:13.416Z,15.43
2019-03-15T20:54:40.540Z,14.20
2019-03-15T20:57:09.651Z,15.73
2019-03-15T20:59:38.218Z,15.80
2019-03-15T21:02:08.015Z,17.37
2019-03-15T21:04:37.085Z,17.17
2019-03-15T21:07:04.590Z,16.93
2019-03-15T21:09:31.634Z,16.17
2019-03-15T21:12:00.937Z,17.40
2019-03-15T21:14:28.845Z,17.00
2019-03-15T21:16:58.904Z,17.90
2019-03-15T21:19:25.978Z,18.00
2019-03-15T21:21:56.105Z,19.10
2019-03-15T21:24:20.172Z,17.50
2019-03-15T21:26:48.142Z,17.57
2019-03-15T21:29:17.193Z,18.17
2019-03-15T21:31:44.658Z,20.07
2019-03-15T21:34:15.506Z,19.13
2019-03-15T21:36:42.685Z,18.63
2019-03-15T21:39:33.479Z,18.57
2019-03-15T21:42:02.095Z,20.30
2019-03-15T21:44:29.333Z,30.23
2019-03-15T21:46:57.211Z,33.77
2019-03-15T21:49:24.353Z,23.57
2019-03-15T21:51:57.439Z,21.20
2019-03-15T21:54:24.496Z,23.63
2019-03-15T21:56:51.543Z,24.60
2019-03-15T21:59:18.584Z,21.27
2019-03-15T22:01:47.066Z,20.23
2019-03-15T22:04:16.212Z,21.87
2019-03-15T22:06:43.828Z,22.83
2019-03-15T22:09:13.543Z,27.47
2019-03-15T22:11:41.406Z,23.33
2019-03-15T22:14:08.459Z,23.40
2019-03-15T22:16:35.514Z,23.50
2019-03-15T22:19:02.551Z,22.90
2019-03-15T22:21:29.604Z,24.87
2019-03-15T22:23:58.852Z,22.97
2019-03-15T22:26:25.849Z,22.30
2019-03-15T22:28:52.901Z,21.03
2019-03-15T22:31:19.945Z,22.27
2019-03-15T22:33:46.993Z,21.07
2019-03-15T22:36:14.143Z,22.17
2019-03-15T22:38:41.198Z,17.40
2019-03-15T22:41:08.245Z,16.27
2019-03-15T22:43:36.314Z,18.90
2019-03-15T22:46:03.378Z,16.03
2019-03-15T22:48:30.415Z,16.17
2019-03-15T22:50:57.459Z,16.33
2019-03-15T22:53:24.614Z,15.83
2019-03-15T22:55:51.658Z,21.00
2019-03-15T22:58:18.692Z,23.77
2019-03-15T23:00:46.941Z,16.27
2019-03-15T23:03:15.875Z,41.37
2019-03-15T23:05:43.010Z,22.53
2019-03-15T23:08:10.021Z,18.87
2019-03-15T23:10:47.191Z,20.57
2019-03-15T23:13:13.951Z,29.13
2019-03-15T23:15:41.057Z,19.97
2019-03-15T23:18:08.101Z,20.23
2019-03-15T23:20:35.150Z,19.53
2019-03-15T23:23:02.203Z,18.50
2019-03-15T23:25:29.220Z,19.27
2019-03-15T23:27:56.295Z,15.97
2019-03-15T23:30:23.394Z,18.77
2019-03-15T23:32:52.443Z,17.67
2019-03-15T23:35:19.802Z,15.33
2019-03-15T23:37:46.847Z,16.97
2019-03-15T23:40:13.898Z,17.97
2019-03-15T23:42:41.764Z,17.57
2019-03-15T23:45:08.879Z,16.90
2019-03-15T23:47:35.882Z,18.67
2019-03-15T23:50:02.915Z,17.50
2019-03-15T23:52:30.056Z,19.03
2019-03-15T23:54:57.105Z,18.83
2019-03-15T23:57:24.179Z,16.60
2019-03-15T23:59:51.201Z,18.57
